首页
METAR-TAF:

METAR-TAF

机场 :

巴林国际机场

巴林, 巴林

纬度: 26-16N, 经度: 050-39E, 海拔: 2米

当前天气观测

该预报发布于25分钟前的23:00 UTC
风速1节,风向多变
温度 31°C
湿度 71%
气压 1012 hPa
能見度: 6000
天空无云

METAR: OBBI 132300Z VRB01KT 6000 SKC 31/25 Q1012 NOSIG

时间: 02:25 (23:25 UTC)

预报

该预报发布于6小时和25分钟前的17:00 UTC
预报有效从13日的 18点(UTC)到 15日的 00点(UTC)
风速8节,风向
能見度: 8000
几率 30% :
短暂存在
从 13日的 18点(UTC)到 14日的 05点(UTC)
能見度: 5000

TAF: OBBI 131700Z 1318/1500 09008KT 8000 NSC PROB30 TEMPO 1318/1405 5000 HZ

超过4000个机场的气象观测和天气预报(METAR&TAF报告)。

可查询的气象台以黄色和红色小点在地图上表示。

将鼠标移到小点上方,可查看气象台名称。

然后点击查看天气观测和预报。

如需切换地图:点击带黑十字的绿色按钮放大地图;点击带横线的绿色按钮缩小地图;或者点击绿色箭头查看邻近地区的地图。


METAR-TAF: